sensor_id;sensor_type;location;lat;lon;timestamp;pressure;altitude;pressure_sealevel;temperature
67599;BMP280;62026;39.230;9.122;2023-06-10T00:00:44;100711.31;;;22.47
67599;BMP280;62026;39.230;9.122;2023-06-10T00:03:10;100701.34;;;22.48
67599;BMP280;62026;39.230;9.122;2023-06-10T00:05:36;100705.13;;;22.47
67599;BMP280;62026;39.230;9.122;2023-06-10T00:08:05;100691.66;;;22.47
67599;BMP280;62026;39.230;9.122;2023-06-10T00:10:38;100692.75;;;22.46
67599;BMP280;62026;39.230;9.122;2023-06-10T00:13:06;100687.69;;;22.44
67599;BMP280;62026;39.230;9.122;2023-06-10T00:15:34;100673.44;;;22.44
67599;BMP280;62026;39.230;9.122;2023-06-10T00:18:04;100681.50;;;22.44
67599;BMP280;62026;39.230;9.122;2023-06-10T00:20:31;100681.19;;;22.45
67599;BMP280;62026;39.230;9.122;2023-06-10T00:22:58;100677.69;;;22.45
67599;BMP280;62026;39.230;9.122;2023-06-10T00:25:25;100678.50;;;22.45
67599;BMP280;62026;39.230;9.122;2023-06-10T00:27:51;100673.72;;;22.42
67599;BMP280;62026;39.230;9.122;2023-06-10T00:30:17;100668.59;;;22.40
67599;BMP280;62026;39.230;9.122;2023-06-10T00:32:43;100664.06;;;22.41
67599;BMP280;62026;39.230;9.122;2023-06-10T00:35:09;100657.84;;;22.40
67599;BMP280;62026;39.230;9.122;2023-06-10T00:37:36;100653.00;;;22.43
67599;BMP280;62026;39.230;9.122;2023-06-10T00:40:03;100645.72;;;22.43
67599;BMP280;62026;39.230;9.122;2023-06-10T00:42:31;100644.94;;;22.43
67599;BMP280;62026;39.230;9.122;2023-06-10T00:44:57;100640.34;;;22.43
67599;BMP280;62026;39.230;9.122;2023-06-10T00:47:25;100646.53;;;22.44
67599;BMP280;62026;39.230;9.122;2023-06-10T00:49:51;100644.94;;;22.43
67599;BMP280;62026;39.230;9.122;2023-06-10T00:52:18;100643.63;;;22.40
67599;BMP280;62026;39.230;9.122;2023-06-10T00:54:48;100627.47;;;22.40
67599;BMP280;62026;39.230;9.122;2023-06-10T00:57:15;100631.78;;;22.41
67599;BMP280;62026;39.230;9.122;2023-06-10T00:59:48;100644.69;;;22.39
67599;BMP280;62026;39.230;9.122;2023-06-10T01:02:14;100645.50;;;22.39
67599;BMP280;62026;39.230;9.122;2023-06-10T01:04:40;100647.69;;;22.37
67599;BMP280;62026;39.230;9.122;2023-06-10T01:07:50;100642.31;;;22.37
67599;BMP280;62026;39.230;9.122;2023-06-10T01:10:53;100646.41;;;22.35
67599;BMP280;62026;39.230;9.122;2023-06-10T01:13:23;100642.91;;;22.34
67599;BMP280;62026;39.230;9.122;2023-06-10T01:15:52;100644.00;;;22.33
67599;BMP280;62026;39.230;9.122;2023-06-10T01:18:18;100656.63;;;22.33
67599;BMP280;62026;39.230;9.122;2023-06-10T01:20:44;100648.88;;;22.31
67599;BMP280;62026;39.230;9.122;2023-06-10T01:23:12;100646.16;;;22.31
67599;BMP280;62026;39.230;9.122;2023-06-10T01:25:46;100642.19;;;22.29
67599;BMP280;62026;39.230;9.122;2023-06-10T01:31:26;100635.50;;;22.26
67599;BMP280;62026;39.230;9.122;2023-06-10T01:34:01;100633.31;;;22.28
67599;BMP280;62026;39.230;9.122;2023-06-10T01:36:31;100634.41;;;22.27
67599;BMP280;62026;39.230;9.122;2023-06-10T01:39:00;100635.50;;;22.26
67599;BMP280;62026;39.230;9.122;2023-06-10T01:41:26;100631.50;;;22.24
67599;BMP280;62026;39.230;9.122;2023-06-10T01:43:55;100619.44;;;22.21
67599;BMP280;62026;39.230;9.122;2023-06-10T01:46:21;100625.13;;;22.20
67599;BMP280;62026;39.230;9.122;2023-06-10T01:48:48;100631.31;;;22.20
67599;BMP280;62026;39.230;9.122;2023-06-10T01:51:18;100620.53;;;22.20
67599;BMP280;62026;39.230;9.122;2023-06-10T01:53:44;100617.53;;;22.22
67599;BMP280;62026;39.230;9.122;2023-06-10T01:56:10;100614.06;;;22.21
67599;BMP280;62026;39.230;9.122;2023-06-10T01:58:42;100611.38;;;22.21
67599;BMP280;62026;39.230;9.122;2023-06-10T02:01:09;100610.59;;;22.21
67599;BMP280;62026;39.230;9.122;2023-06-10T02:03:36;100600.69;;;22.16
67599;BMP280;62026;39.230;9.122;2023-06-10T02:06:02;100592.63;;;22.16
67599;BMP280;62026;39.230;9.122;2023-06-10T02:08:28;100587.53;;;22.15
67599;BMP280;62026;39.230;9.122;2023-06-10T02:10:55;100589.41;;;22.14
67599;BMP280;62026;39.230;9.122;2023-06-10T02:13:20;100597.50;;;22.14
67599;BMP280;62026;39.230;9.122;2023-06-10T02:15:51;100593.22;;;22.13
67599;BMP280;62026;39.230;9.122;2023-06-10T02:18:19;100584.03;;;22.14
67599;BMP280;62026;39.230;9.122;2023-06-10T02:20:46;100581.69;;;22.13
67599;BMP280;62026;39.230;9.122;2023-06-10T02:23:12;100588.94;;;22.12
67599;BMP280;62026;39.230;9.122;2023-06-10T02:25:38;100590.84;;;22.12
67599;BMP280;62026;39.230;9.122;2023-06-10T02:28:04;100598.09;;;22.11
67599;BMP280;62026;39.230;9.122;2023-06-10T02:30:31;100597.00;;;22.12
67599;BMP280;62026;39.230;9.122;2023-06-10T02:32:57;100599.97;;;22.11
67599;BMP280;62026;39.230;9.122;2023-06-10T02:35:25;100603.72;;;22.10
67599;BMP280;62026;39.230;9.122;2023-06-10T02:37:52;100604.56;;;22.10
67599;BMP280;62026;39.230;9.122;2023-06-10T02:40:19;100604.56;;;22.10
67599;BMP280;62026;39.230;9.122;2023-06-10T02:42:45;100601.34;;;22.08
67599;BMP280;62026;39.230;9.122;2023-06-10T02:45:11;100606.22;;;22.06
67599;BMP280;62026;39.230;9.122;2023-06-10T02:47:42;100598.16;;;22.06
67599;BMP280;62026;39.230;9.122;2023-06-10T02:50:09;100584.22;;;22.04
67599;BMP280;62026;39.230;9.122;2023-06-10T02:52:43;100589.59;;;22.04
67599;BMP280;62026;39.230;9.122;2023-06-10T02:55:10;100582.63;;;22.03
67599;BMP280;62026;39.230;9.122;2023-06-10T02:57:37;100588.81;;;22.04
67599;BMP280;62026;39.230;9.122;2023-06-10T03:00:05;100579.44;;;22.01
67599;BMP280;62026;39.230;9.122;2023-06-10T03:02:35;100579.44;;;22.01
67599;BMP280;62026;39.230;9.122;2023-06-10T03:05:04;100579.44;;;22.01
67599;BMP280;62026;39.230;9.122;2023-06-10T03:07:31;100580.00;;;21.98
67599;BMP280;62026;39.230;9.122;2023-06-10T03:09:59;100581.41;;;21.95
67599;BMP280;62026;39.230;9.122;2023-06-10T03:12:26;100579.50;;;21.96
67599;BMP280;62026;39.230;9.122;2023-06-10T03:14:52;100585.69;;;21.96
67599;BMP280;62026;39.230;9.122;2023-06-10T03:17:18;100590.25;;;21.96
67599;BMP280;62026;39.230;9.122;2023-06-10T03:19:45;100588.06;;;21.98
67599;BMP280;62026;39.230;9.122;2023-06-10T03:22:14;100581.59;;;21.99
67599;BMP280;62026;39.230;9.122;2023-06-10T03:24:58;100580.00;;;21.98
67599;BMP280;62026;39.230;9.122;2023-06-10T03:27:26;100584.34;;;21.94
67599;BMP280;62026;39.230;9.122;2023-06-10T03:29:55;100577.91;;;21.95
67599;BMP280;62026;39.230;9.122;2023-06-10T03:32:22;100583.56;;;21.93
67599;BMP280;62026;39.230;9.122;2023-06-10T03:34:48;100589.72;;;21.94
67599;BMP280;62026;39.230;9.122;2023-06-10T03:37:14;100581.16;;;21.92
67599;BMP280;62026;39.230;9.122;2023-06-10T03:39:41;100586.56;;;21.92
67599;BMP280;62026;39.230;9.122;2023-06-10T03:42:08;100577.41;;;21.93
67599;BMP280;62026;39.230;9.122;2023-06-10T03:44:34;100574.72;;;21.93
67599;BMP280;62026;39.230;9.122;2023-06-10T03:47:00;100581.16;;;21.92
67599;BMP280;62026;39.230;9.122;2023-06-10T03:49:26;100572.59;;;21.90
67599;BMP280;62026;39.230;9.122;2023-06-10T03:51:57;100578.53;;;21.87
67599;BMP280;62026;39.230;9.122;2023-06-10T03:54:23;100567.00;;;21.86
67599;BMP280;62026;39.230;9.122;2023-06-10T03:56:49;100565.66;;;21.89
67599;BMP280;62026;39.230;9.122;2023-06-10T03:59:16;100560.28;;;21.89
67599;BMP280;62026;39.230;9.122;2023-06-10T04:01:42;100565.66;;;21.89
67599;BMP280;62026;39.230;9.122;2023-06-10T04:04:09;100570.47;;;21.87
67599;BMP280;62026;39.230;9.122;2023-06-10T04:06:36;100578.06;;;21.85
67599;BMP280;62026;39.230;9.122;2023-06-10T04:09:03;100588.50;;;21.86
67599;BMP280;62026;39.230;9.122;2023-06-10T04:11:29;100593.31;;;21.89
67599;BMP280;62026;39.230;9.122;2023-06-10T04:13:57;100597.91;;;21.89
67599;BMP280;62026;39.230;9.122;2023-06-10T04:16:24;100597.91;;;21.89
67599;BMP280;62026;39.230;9.122;2023-06-10T04:18:50;100599.47;;;21.90
67599;BMP280;62026;39.230;9.122;2023-06-10T04:21:17;100606.44;;;21.91
67599;BMP280;62026;39.230;9.122;2023-06-10T04:23:43;100603.47;;;21.92
67599;BMP280;62026;39.230;9.122;2023-06-10T04:26:10;100604.50;;;21.96
67599;BMP280;62026;39.230;9.122;2023-06-10T04:28:38;100601.59;;;21.93
67599;BMP280;62026;39.230;9.122;2023-06-10T04:31:04;100603.16;;;21.94
67599;BMP280;62026;39.230;9.122;2023-06-10T04:33:31;100607.47;;;21.95
67599;BMP280;62026;39.230;9.122;2023-06-10T04:35:57;100606.88;;;21.98
67599;BMP280;62026;39.230;9.122;2023-06-10T04:38:26;100615.75;;;21.98
67599;BMP280;62026;39.230;9.122;2023-06-10T04:40:53;100617.06;;;22.01
67599;BMP280;62026;39.230;9.122;2023-06-10T04:43:21;100618.09;;;22.05
67599;BMP280;62026;39.230;9.122;2023-06-10T04:45:47;100614.81;;;22.08
67599;BMP280;62026;39.230;9.122;2023-06-10T04:48:13;100624.47;;;22.09
67599;BMP280;62026;39.230;9.122;2023-06-10T04:50:39;100620.69;;;22.10
67599;BMP280;62026;39.230;9.122;2023-06-10T04:53:05;100629.19;;;22.17
67599;BMP280;62026;39.230;9.122;2023-06-10T04:55:36;100629.69;;;22.19
67599;BMP280;62026;39.230;9.122;2023-06-10T04:58:03;100642.53;;;22.22
67599;BMP280;62026;39.230;9.122;2023-06-10T05:00:29;100643.56;;;22.26
67599;BMP280;62026;39.230;9.122;2023-06-10T05:02:55;100633.69;;;22.22
67599;BMP280;62026;39.230;9.122;2023-06-10T05:05:21;100632.31;;;22.24
67599;BMP280;62026;39.230;9.122;2023-06-10T05:07:47;100631.19;;;22.25
67599;BMP280;62026;39.230;9.122;2023-06-10T05:10:13;100631.72;;;22.27
67599;BMP280;62026;39.230;9.122;2023-06-10T05:12:41;100633.00;;;22.30
67599;BMP280;62026;39.230;9.122;2023-06-10T05:15:08;100633.00;;;22.30
67599;BMP280;62026;39.230;9.122;2023-06-10T05:17:34;100638.72;;;22.28
67599;BMP280;62026;39.230;9.122;2023-06-10T05:20:04;100644.63;;;22.25
67599;BMP280;62026;39.230;9.122;2023-06-10T05:22:30;100631.72;;;22.27
67599;BMP280;62026;39.230;9.122;2023-06-10T05:24:56;100631.63;;;22.32
67599;BMP280;62026;39.230;9.122;2023-06-10T05:27:22;100624.41;;;22.47
67599;BMP280;62026;39.230;9.122;2023-06-10T05:29:48;100640.38;;;22.57
67599;BMP280;62026;39.230;9.122;2023-06-10T05:32:14;100647.69;;;22.70
67599;BMP280;62026;39.230;9.122;2023-06-10T05:34:40;100643.41;;;22.69
67599;BMP280;62026;39.230;9.122;2023-06-10T05:37:06;100646.50;;;22.76
67599;BMP280;62026;39.230;9.122;2023-06-10T05:39:32;100650.53;;;22.92
67599;BMP280;62026;39.230;9.122;2023-06-10T05:41:58;100652.41;;;23.05
67599;BMP280;62026;39.230;9.122;2023-06-10T05:44:25;100649.53;;;23.15
67599;BMP280;62026;39.230;9.122;2023-06-10T05:46:51;100650.06;;;23.17
67599;BMP280;62026;39.230;9.122;2023-06-10T05:49:17;100659.03;;;23.27
67599;BMP280;62026;39.230;9.122;2023-06-10T05:51:43;100670.00;;;23.30
67599;BMP280;62026;39.230;9.122;2023-06-10T05:54:09;100664.81;;;23.34
67599;BMP280;62026;39.230;9.122;2023-06-10T05:56:35;100661.00;;;23.35
67599;BMP280;62026;39.230;9.122;2023-06-10T05:59:01;100666.19;;;23.45
67599;BMP280;62026;39.230;9.122;2023-06-10T06:01:27;100668.38;;;23.43
67599;BMP280;62026;39.230;9.122;2023-06-10T06:03:53;100670.00;;;23.44
67599;BMP280;62026;39.230;9.122;2023-06-10T06:06:19;100677.25;;;23.57
67599;BMP280;62026;39.230;9.122;2023-06-10T06:08:46;100685.16;;;23.67
67599;BMP280;62026;39.230;9.122;2023-06-10T06:11:12;100686.31;;;23.61
67599;BMP280;62026;39.230;9.122;2023-06-10T06:13:39;100683.78;;;23.56
67599;BMP280;62026;39.230;9.122;2023-06-10T06:16:05;100691.53;;;23.58
67599;BMP280;62026;39.230;9.122;2023-06-10T06:18:31;100690.22;;;23.69
67599;BMP280;62026;39.230;9.122;2023-06-10T06:20:57;100690.97;;;23.83
67599;BMP280;62026;39.230;9.122;2023-06-10T06:23:23;100688.38;;;23.91
67599;BMP280;62026;39.230;9.122;2023-06-10T06:25:49;100689.75;;;24.03
67599;BMP280;62026;39.230;9.122;2023-06-10T06:28:15;100688.41;;;24.14
67599;BMP280;62026;39.230;9.122;2023-06-10T06:30:41;100682.03;;;24.10
67599;BMP280;62026;39.230;9.122;2023-06-10T06:33:07;100690.44;;;24.30
67599;BMP280;62026;39.230;9.122;2023-06-10T06:35:33;100699.09;;;24.41
67599;BMP280;62026;39.230;9.122;2023-06-10T06:38:00;100700.31;;;24.35
67599;BMP280;62026;39.230;9.122;2023-06-10T06:40:28;100709.91;;;24.41
67599;BMP280;62026;39.230;9.122;2023-06-10T06:42:54;100713.69;;;24.40
67599;BMP280;62026;39.230;9.122;2023-06-10T06:45:35;100705.84;;;24.52
67599;BMP280;62026;39.230;9.122;2023-06-10T06:48:01;100714.44;;;24.54
67599;BMP280;62026;39.230;9.122;2023-06-10T06:50:27;100712.97;;;24.70
67599;BMP280;62026;39.230;9.122;2023-06-10T06:52:53;100719.31;;;24.74
67599;BMP280;62026;39.230;9.122;2023-06-10T06:55:19;100716.22;;;24.90
67599;BMP280;62026;39.230;9.122;2023-06-10T06:57:45;100710.25;;;25.01
67599;BMP280;62026;39.230;9.122;2023-06-10T07:00:12;100713.97;;;25.23
67599;BMP280;62026;39.230;9.122;2023-06-10T07:02:38;100715.28;;;25.34
67599;BMP280;62026;39.230;9.122;2023-06-10T07:05:06;100720.22;;;25.40
67599;BMP280;62026;39.230;9.122;2023-06-10T07:07:34;100728.16;;;25.37
67599;BMP280;62026;39.230;9.122;2023-06-10T07:10:00;100714.06;;;25.40
67599;BMP280;62026;39.230;9.122;2023-06-10T07:12:26;100707.69;;;25.53
67599;BMP280;62026;39.230;9.122;2023-06-10T07:14:52;100720.13;;;25.63
67599;BMP280;62026;39.230;9.122;2023-06-10T07:17:18;100717.78;;;25.70
67599;BMP280;62026;39.230;9.122;2023-06-10T07:19:45;100716.13;;;25.51
67599;BMP280;62026;39.230;9.122;2023-06-10T07:22:11;100708.34;;;25.58
67599;BMP280;62026;39.230;9.122;2023-06-10T07:24:37;100698.00;;;25.52
67599;BMP280;62026;39.230;9.122;2023-06-10T07:27:04;100700.53;;;25.48
67599;BMP280;62026;39.230;9.122;2023-06-10T07:29:31;100705.59;;;25.41
67599;BMP280;62026;39.230;9.122;2023-06-10T07:31:57;100709.59;;;25.52
67599;BMP280;62026;39.230;9.122;2023-06-10T07:34:23;100719.19;;;25.76
67599;BMP280;62026;39.230;9.122;2023-06-10T07:36:49;100720.81;;;25.85
67599;BMP280;62026;39.230;9.122;2023-06-10T07:39:15;100708.84;;;25.95
67599;BMP280;62026;39.230;9.122;2023-06-10T07:41:41;100704.41;;;26.08
67599;BMP280;62026;39.230;9.122;2023-06-10T07:44:07;100699.09;;;26.28
67599;BMP280;62026;39.230;9.122;2023-06-10T07:46:33;100693.66;;;26.54
67599;BMP280;62026;39.230;9.122;2023-06-10T07:48:59;100689.34;;;26.53
67599;BMP280;62026;39.230;9.122;2023-06-10T07:51:25;100694.59;;;26.58
67599;BMP280;62026;39.230;9.122;2023-06-10T07:53:51;100699.34;;;26.70
67599;BMP280;62026;39.230;9.122;2023-06-10T07:56:17;100706.47;;;26.83
67599;BMP280;62026;39.230;9.122;2023-06-10T07:58:43;100711.81;;;27.00
67599;BMP280;62026;39.230;9.122;2023-06-10T08:01:09;100705.13;;;26.98
67599;BMP280;62026;39.230;9.122;2023-06-10T08:03:34;100714.41;;;26.88
67599;BMP280;62026;39.230;9.122;2023-06-10T08:06:00;100704.97;;;27.23
67599;BMP280;62026;39.230;9.122;2023-06-10T08:08:26;100705.38;;;27.13
67599;BMP280;62026;39.230;9.122;2023-06-10T08:10:52;100695.16;;;27.40
67599;BMP280;62026;39.230;9.122;2023-06-10T08:13:18;100692.69;;;27.26
67599;BMP280;62026;39.230;9.122;2023-06-10T08:15:44;100694.19;;;27.44
67599;BMP280;62026;39.230;9.122;2023-06-10T08:18:10;100697.19;;;27.43
67599;BMP280;62026;39.230;9.122;2023-06-10T08:20:36;100705.16;;;27.48
67599;BMP280;62026;39.230;9.122;2023-06-10T08:23:02;100702.69;;;27.55
67599;BMP280;62026;39.230;9.122;2023-06-10T08:25:28;100707.16;;;27.39
67599;BMP280;62026;39.230;9.122;2023-06-10T08:27:54;100701.63;;;27.27
67599;BMP280;62026;39.230;9.122;2023-06-10T08:30:22;100695.56;;;27.71
67599;BMP280;62026;39.230;9.122;2023-06-10T08:32:48;100692.38;;;28.23
67599;BMP280;62026;39.230;9.122;2023-06-10T08:35:14;100695.28;;;28.18
67599;BMP280;62026;39.230;9.122;2023-06-10T08:37:40;100693.84;;;28.20
67599;BMP280;62026;39.230;9.122;2023-06-10T08:40:07;100696.16;;;27.97
67599;BMP280;62026;39.230;9.122;2023-06-10T08:42:39;100702.75;;;27.88
67599;BMP280;62026;39.230;9.122;2023-06-10T08:45:12;100705.81;;;27.86
67599;BMP280;62026;39.230;9.122;2023-06-10T08:47:44;100702.44;;;27.69
67599;BMP280;62026;39.230;9.122;2023-06-10T08:50:12;100700.91;;;28.00
67599;BMP280;62026;39.230;9.122;2023-06-10T08:52:43;100699.44;;;28.03
67599;BMP280;62026;39.230;9.122;2023-06-10T08:55:29;100695.59;;;28.04
67599;BMP280;62026;39.230;9.122;2023-06-10T08:57:57;100693.84;;;28.20
67599;BMP280;62026;39.230;9.122;2023-06-10T09:00:26;100696.25;;;28.34
67599;BMP280;62026;39.230;9.122;2023-06-10T09:02:55;100698.41;;;28.40
67599;BMP280;62026;39.230;9.122;2023-06-10T09:05:23;100699.22;;;28.65
67599;BMP280;62026;39.230;9.122;2023-06-10T09:07:52;100705.09;;;28.55
67599;BMP280;62026;39.230;9.122;2023-06-10T09:10:20;100712.38;;;28.87
67599;BMP280;62026;39.230;9.122;2023-06-10T09:12:46;100704.78;;;28.93
67599;BMP280;62026;39.230;9.122;2023-06-10T09:15:13;100711.69;;;29.15
67599;BMP280;62026;39.230;9.122;2023-06-10T09:17:41;100714.56;;;29.34
67599;BMP280;62026;39.230;9.122;2023-06-10T09:20:08;100705.81;;;29.13
67599;BMP280;62026;39.230;9.122;2023-06-10T09:22:35;100705.31;;;29.23
67599;BMP280;62026;39.230;9.122;2023-06-10T09:25:05;100699.59;;;29.40
67599;BMP280;62026;39.230;9.122;2023-06-10T09:27:32;100701.91;;;29.26
67599;BMP280;62026;39.230;9.122;2023-06-10T09:29:58;100703.53;;;29.27
67599;BMP280;62026;39.230;9.122;2023-06-10T09:32:25;100709.84;;;29.31
67599;BMP280;62026;39.230;9.122;2023-06-10T09:34:52;100703.66;;;29.58
67599;BMP280;62026;39.230;9.122;2023-06-10T09:37:25;100713.28;;;29.83
67599;BMP280;62026;39.230;9.122;2023-06-10T09:42:36;100705.09;;;29.68
67599;BMP280;62026;39.230;9.122;2023-06-10T09:45:04;100693.97;;;29.45
67599;BMP280;62026;39.230;9.122;2023-06-10T09:47:30;100696.28;;;28.94
67599;BMP280;62026;39.230;9.122;2023-06-10T09:49:57;100699.66;;;29.28
67599;BMP280;62026;39.230;9.122;2023-06-10T09:52:24;100695.59;;;28.73
67599;BMP280;62026;39.230;9.122;2023-06-10T09:54:52;100698.53;;;28.92
67599;BMP280;62026;39.230;9.122;2023-06-10T09:57:19;100696.19;;;28.91
67599;BMP280;62026;39.230;9.122;2023-06-10T09:59:46;100705.47;;;28.78
67599;BMP280;62026;39.230;9.122;2023-06-10T10:02:15;100691.75;;;28.74
67599;BMP280;62026;39.230;9.122;2023-06-10T10:04:45;100694.00;;;28.72
67599;BMP280;62026;39.230;9.122;2023-06-10T10:07:12;100691.53;;;28.43
67599;BMP280;62026;39.230;9.122;2023-06-10T10:09:42;100690.16;;;28.49
67599;BMP280;62026;39.230;9.122;2023-06-10T10:12:15;100691.53;;;28.43
67599;BMP280;62026;39.230;9.122;2023-06-10T10:14:47;100698.00;;;27.22
67599;BMP280;62026;39.230;9.122;2023-06-10T10:17:16;100683.31;;;27.65
67599;BMP280;62026;39.230;9.122;2023-06-10T10:19:58;100682.00;;;27.00
67599;BMP280;62026;39.230;9.122;2023-06-10T10:22:29;100673.00;;;27.38
67599;BMP280;62026;39.230;9.122;2023-06-10T10:25:02;100678.03;;;27.48
67599;BMP280;62026;39.230;9.122;2023-06-10T10:27:36;100681.06;;;27.46
67599;BMP280;62026;39.230;9.122;2023-06-10T10:30:03;100683.13;;;27.70
67599;BMP280;62026;39.230;9.122;2023-06-10T10:33:04;100670.94;;;27.05
67599;BMP280;62026;39.230;9.122;2023-06-10T10:35:33;100663.72;;;27.18
67599;BMP280;62026;39.230;9.122;2023-06-10T10:37:59;100657.41;;;26.76
67599;BMP280;62026;39.230;9.122;2023-06-10T10:40:27;100662.94;;;26.79
67599;BMP280;62026;39.230;9.122;2023-06-10T10:42:58;100667.38;;;26.55
67599;BMP280;62026;39.230;9.122;2023-06-10T10:45:28;100657.13;;;26.69
67599;BMP280;62026;39.230;9.122;2023-06-10T10:47:55;100659.88;;;26.90
67599;BMP280;62026;39.230;9.122;2023-06-10T10:50:22;100665.38;;;27.10
67599;BMP280;62026;39.230;9.122;2023-06-10T10:52:59;100663.44;;;26.73
67599;BMP280;62026;39.230;9.122;2023-06-10T10:55:27;100663.81;;;26.63
67599;BMP280;62026;39.230;9.122;2023-06-10T10:58:03;100654.75;;;26.59
67599;BMP280;62026;39.230;9.122;2023-06-10T11:00:44;100655.50;;;26.21
67599;BMP280;62026;39.230;9.122;2023-06-10T11:03:15;100654.72;;;26.12
67599;BMP280;62026;39.230;9.122;2023-06-10T11:05:47;100651.81;;;26.34
67599;BMP280;62026;39.230;9.122;2023-06-10T11:11:26;100657.47;;;25.78
67599;BMP280;62026;39.230;9.122;2023-06-10T11:16:41;100668.44;;;25.90
67599;BMP280;62026;39.230;9.122;2023-06-10T11:19:08;100672.25;;;25.72
67599;BMP280;62026;39.230;9.122;2023-06-10T11:21:59;100667.97;;;25.96
67599;BMP280;62026;39.230;9.122;2023-06-10T11:24:32;100659.50;;;25.81
67599;BMP280;62026;39.230;9.122;2023-06-10T11:27:18;100661.56;;;26.18
67599;BMP280;62026;39.230;9.122;2023-06-10T11:32:31;100656.81;;;25.89
67599;BMP280;62026;39.230;9.122;2023-06-10T11:34:59;100642.63;;;26.01
67599;BMP280;62026;39.230;9.122;2023-06-10T11:37:27;100633.75;;;25.83
67599;BMP280;62026;39.230;9.122;2023-06-10T11:39:55;100633.56;;;26.23
67599;BMP280;62026;39.230;9.122;2023-06-10T11:42:23;100642.75;;;26.39
67599;BMP280;62026;39.230;9.122;2023-06-10T11:44:54;100629.22;;;26.30
67599;BMP280;62026;39.230;9.122;2023-06-10T11:47:20;100632.22;;;26.46
67599;BMP280;62026;39.230;9.122;2023-06-10T11:49:57;100626.03;;;26.28
67599;BMP280;62026;39.230;9.122;2023-06-10T11:52:31;100624.59;;;26.14
67599;BMP280;62026;39.230;9.122;2023-06-10T11:55:06;100617.44;;;26.26
67599;BMP280;62026;39.230;9.122;2023-06-10T11:57:35;100627.44;;;26.34
67599;BMP280;62026;39.230;9.122;2023-06-10T12:00:06;100633.69;;;26.26
67599;BMP280;62026;39.230;9.122;2023-06-10T12:02:37;100621.44;;;26.12
67599;BMP280;62026;39.230;9.122;2023-06-10T12:05:14;100631.16;;;26.04
67599;BMP280;62026;39.230;9.122;2023-06-10T12:07:40;100626.06;;;26.11
67599;BMP280;62026;39.230;9.122;2023-06-10T12:10:06;100637.22;;;26.01
67599;BMP280;62026;39.230;9.122;2023-06-10T12:12:35;100616.06;;;26.03
67599;BMP280;62026;39.230;9.122;2023-06-10T12:15:02;100612.91;;;25.84
67599;BMP280;62026;39.230;9.122;2023-06-10T12:20:08;100605.59;;;25.84
67599;BMP280;62026;39.230;9.122;2023-06-10T12:22:43;100605.88;;;25.83
67599;BMP280;62026;39.230;9.122;2023-06-10T12:25:11;100599.06;;;25.85
67599;BMP280;62026;39.230;9.122;2023-06-10T12:27:39;100607.97;;;25.86
67599;BMP280;62026;39.230;9.122;2023-06-10T12:30:07;100590.78;;;25.82
67599;BMP280;62026;39.230;9.122;2023-06-10T12:32:43;100598.06;;;26.07
67599;BMP280;62026;39.230;9.122;2023-06-10T12:35:12;100587.44;;;25.85
67599;BMP280;62026;39.230;9.122;2023-06-10T12:38:00;100578.66;;;25.88
67599;BMP280;62026;39.230;9.122;2023-06-10T12:42:55;100578.31;;;25.98
67599;BMP280;62026;39.230;9.122;2023-06-10T12:45:36;100587.09;;;26.04
67599;BMP280;62026;39.230;9.122;2023-06-10T12:48:24;100583.91;;;26.02
67599;BMP280;62026;39.230;9.122;2023-06-10T12:50:56;100570.81;;;26.12
67599;BMP280;62026;39.230;9.122;2023-06-10T12:53:24;100573.97;;;26.14
67599;BMP280;62026;39.230;9.122;2023-06-10T12:55:53;100580.25;;;25.89
67599;BMP280;62026;39.230;9.122;2023-06-10T12:58:22;100578.53;;;25.93
67599;BMP280;62026;39.230;9.122;2023-06-10T13:00:52;100574.03;;;25.97
67599;BMP280;62026;39.230;9.122;2023-06-10T13:03:19;100568.03;;;25.91
67599;BMP280;62026;39.230;9.122;2023-06-10T13:05:45;100566.22;;;26.04
67599;BMP280;62026;39.230;9.122;2023-06-10T13:08:12;100579.44;;;25.97
67599;BMP280;62026;39.230;9.122;2023-06-10T13:10:43;100574.53;;;25.82
67599;BMP280;62026;39.230;9.122;2023-06-10T13:13:09;100568.03;;;25.83
67599;BMP280;62026;39.230;9.122;2023-06-10T13:15:36;100579.63;;;25.92
67599;BMP280;62026;39.230;9.122;2023-06-10T13:18:06;100581.38;;;25.96
67599;BMP280;62026;39.230;9.122;2023-06-10T13:20:32;100568.34;;;25.90
67599;BMP280;62026;39.230;9.122;2023-06-10T13:22:59;100573.13;;;25.84
67599;BMP280;62026;39.230;9.122;2023-06-10T13:25:25;100569.16;;;25.65
67599;BMP280;62026;39.230;9.122;2023-06-10T13:27:51;100562.59;;;25.91
67599;BMP280;62026;39.230;9.122;2023-06-10T13:30:17;100571.69;;;25.78
67599;BMP280;62026;39.230;9.122;2023-06-10T13:32:44;100572.03;;;25.77
67599;BMP280;62026;39.230;9.122;2023-06-10T13:35:10;100572.19;;;25.72
67599;BMP280;62026;39.230;9.122;2023-06-10T13:37:37;100577.25;;;25.82
67599;BMP280;62026;39.230;9.122;2023-06-10T13:40:04;100568.03;;;25.74
67599;BMP280;62026;39.230;9.122;2023-06-10T13:42:31;100563.22;;;25.88
67599;BMP280;62026;39.230;9.122;2023-06-10T13:44:57;100578.66;;;25.88
67599;BMP280;62026;39.230;9.122;2023-06-10T13:47:24;100569.44;;;25.89
67599;BMP280;62026;39.230;9.122;2023-06-10T13:49:51;100588.84;;;25.91
67599;BMP280;62026;39.230;9.122;2023-06-10T13:52:18;100563.72;;;25.82
67599;BMP280;62026;39.230;9.122;2023-06-10T13:54:48;100550.72;;;25.67
67599;BMP280;62026;39.230;9.122;2023-06-10T13:57:15;100560.91;;;25.70
67599;BMP280;62026;39.230;9.122;2023-06-10T13:59:41;100560.25;;;25.73
67599;BMP280;62026;39.230;9.122;2023-06-10T14:02:08;100555.97;;;25.63
67599;BMP280;62026;39.230;9.122;2023-06-10T14:04:35;100546.56;;;25.61
67599;BMP280;62026;39.230;9.122;2023-06-10T14:07:04;100538.19;;;25.53
67599;BMP280;62026;39.230;9.122;2023-06-10T14:09:31;100553.72;;;25.65
67599;BMP280;62026;39.230;9.122;2023-06-10T14:11:58;100550.41;;;25.77
67599;BMP280;62026;39.230;9.122;2023-06-10T14:14:24;100554.81;;;25.81
67599;BMP280;62026;39.230;9.122;2023-06-10T14:16:51;100554.50;;;25.83
67599;BMP280;62026;39.230;9.122;2023-06-10T14:19:17;100558.47;;;25.68
67599;BMP280;62026;39.230;9.122;2023-06-10T14:21:43;100561.88;;;25.39